Terminal Aerodrome Forecast
Issued by NWS

Home | Current Version | Previous Version | Text Only | Print | Product List | Glossary On
Versions: 1 2 3 4 5 6 7 8 9 10 11 12 13 14 15 16 17 18 19 20 21 22 23 24
802
FTUS46 KSGX 011120
TAFSAN
TAF
KSAN 011120Z 0112/0218 VRB04KT P6SM SCT006
     FM011500 VRB04KT P6SM FEW007
     FM011900 29010KT P6SM SKC
     FM020100 VRB04KT P6SM FEW010
     FM020700 VRB04KT P6SM BKN010
     FM021600 VRB05KT P6SM FEW010=

USA.gov is the U.S. government's official web portal to all federal, state and local government web resources and services.